Time;durP1;ratioP1;P1;durP2;ratioP2;P2;SDS_P1;SDS_P2;PMS_P1;PMS_P2;Temp;Humidity;BMP_temperature;BMP_pressure;BME280_temperature;BME280_humidity;BME280_pressure;Samples;Min_cycle;Max_cycle;Signal;HPM_P1;HPM_P2
2021/08/12 00:00:49;;;;;;;6.2;5.2;;;;;;;;;;;;;
2021/08/12 00:03:14;;;;;;;6.1;5.5;;;;;;;;;;;;;
2021/08/12 00:05:39;;;;;;;6.9;5.7;;;;;;;;;;;;;
2021/08/12 00:08:04;;;;;;;7.7;5.2;;;;;;;;;;;;;
2021/08/12 00:10:30;;;;;;;6.9;5.4;;;;;;;;;;;;;
2021/08/12 00:12:55;;;;;;;8.5;5.5;;;;;;;;;;;;;
2021/08/12 00:15:23;;;;;;;5.4;4.9;;;;;;;;;;;;;
2021/08/12 00:17:48;;;;;;;7;5.2;;;;;;;;;;;;;
2021/08/12 00:20:13;;;;;;;6.5;5.1;;;;;;;;;;;;;
2021/08/12 00:22:38;;;;;;;7.7;5.6;;;;;;;;;;;;;
2021/08/12 00:25:04;;;;;;;6.9;5.5;;;;;;;;;;;;;
2021/08/12 00:27:29;;;;;;;6.8;5.4;;;;;;;;;;;;;
2021/08/12 00:29:55;;;;;;;7.1;5.3;;;;;;;;;;;;;
2021/08/12 00:32:20;;;;;;;7.4;5.2;;;;;;;;;;;;;
2021/08/12 00:34:46;;;;;;;7.4;5.8;;;;;;;;;;;;;
2021/08/12 00:37:11;;;;;;;6.6;5.1;;;;;;;;;;;;;
2021/08/12 00:39:37;;;;;;;6.6;5;;;;;;;;;;;;;
2021/08/12 00:42:02;;;;;;;8;5.5;;;;;;;;;;;;;
2021/08/12 00:44:28;;;;;;;7;5.4;;;;;;;;;;;;;
2021/08/12 00:46:54;;;;;;;6.1;5.2;;;;;;;;;;;;;
2021/08/12 00:49:19;;;;;;;6.3;4.7;;;;;;;;;;;;;
2021/08/12 00:51:44;;;;;;;5.5;5;;;;;;;;;;;;;
2021/08/12 00:54:09;;;;;;;6.3;5.2;;;;;;;;;;;;;
2021/08/12 00:56:34;;;;;;;6.1;4.6;;;;;;;;;;;;;
2021/08/12 00:59:00;;;;;;;5.3;4.6;;;;;;;;;;;;;
2021/08/12 01:01:25;;;;;;;6;5.2;;;;;;;;;;;;;
2021/08/12 01:03:51;;;;;;;5.7;4.9;;;;;;;;;;;;;
2021/08/12 01:06:16;;;;;;;6.4;5;;;;;;;;;;;;;
2021/08/12 01:08:41;;;;;;;6.4;4.9;;;;;;;;;;;;;
2021/08/12 01:11:06;;;;;;;6.7;5.3;;;;;;;;;;;;;
2021/08/12 01:13:31;;;;;;;7;5.1;;;;;;;;;;;;;
2021/08/12 01:15:56;;;;;;;6.8;5.1;;;;;;;;;;;;;
2021/08/12 01:18:21;;;;;;;6.5;5.3;;;;;;;;;;;;;
2021/08/12 01:20:46;;;;;;;5.6;4.9;;;;;;;;;;;;;
2021/08/12 01:23:11;;;;;;;6.7;5.3;;;;;;;;;;;;;
2021/08/12 01:25:37;;;;;;;6.1;5.5;;;;;;;;;;;;;
2021/08/12 01:28:02;;;;;;;7.6;5.9;;;;;;;;;;;;;
2021/08/12 01:30:30;;;;;;;7.1;5.5;;;;;;;;;;;;;
2021/08/12 01:32:52;;;;;;;7.4;5.9;;;;;;;;;;;;;
2021/08/12 01:35:17;;;;;;;8.1;6.2;;;;;;;;;;;;;
2021/08/12 01:37:42;;;;;;;7.7;5.9;;;;;;;;;;;;;
2021/08/12 01:40:07;;;;;;;5.9;5;;;;;;;;;;;;;
2021/08/12 01:42:33;;;;;;;6.5;5.3;;;;;;;;;;;;;
2021/08/12 01:44:58;;;;;;;5.5;4.9;;;;;;;;;;;;;
2021/08/12 01:47:23;;;;;;;6.6;5.6;;;;;;;;;;;;;
2021/08/12 01:49:48;;;;;;;6.5;5.2;;;;;;;;;;;;;
2021/08/12 01:52:13;;;;;;;6.4;4.7;;;;;;;;;;;;;
2021/08/12 01:54:38;;;;;;;6.1;5.5;;;;;;;;;;;;;
2021/08/12 01:57:03;;;;;;;7.4;5.4;;;;;;;;;;;;;
2021/08/12 01:59:28;;;;;;;6.6;5.5;;;;;;;;;;;;;
2021/08/12 02:01:54;;;;;;;7.6;5.5;;;;;;;;;;;;;
2021/08/12 02:04:20;;;;;;;7.6;5.2;;;;;;;;;;;;;
2021/08/12 02:06:45;;;;;;;7.9;5.8;;;;;;;;;;;;;
2021/08/12 02:09:10;;;;;;;5.8;5;;;;;;;;;;;;;
2021/08/12 02:11:36;;;;;;;7.6;5.5;;;;;;;;;;;;;
2021/08/12 02:14:01;;;;;;;7.3;5.2;;;;;;;;;;;;;
2021/08/12 02:16:26;;;;;;;6;5.4;;;;;;;;;;;;;
2021/08/12 02:18:52;;;;;;;5.9;5.1;;;;;;;;;;;;;
2021/08/12 02:21:17;;;;;;;6.2;5.3;;;;;;;;;;;;;
2021/08/12 02:23:42;;;;;;;7.9;5.4;;;;;;;;;;;;;
2021/08/12 02:26:08;;;;;;;6;5.3;;;;;;;;;;;;;
2021/08/12 02:28:33;;;;;;;6.2;4.7;;;;;;;;;;;;;
2021/08/12 02:31:00;;;;;;;6.5;5.5;;;;;;;;;;;;;
2021/08/12 02:33:25;;;;;;;6.6;5.4;;;;;;;;;;;;;
2021/08/12 02:35:51;;;;;;;5.7;4.8;;;;;;;;;;;;;
2021/08/12 02:38:16;;;;;;;6.1;5.3;;;;;;;;;;;;;
2021/08/12 02:40:41;;;;;;;6.6;5.3;;;;;;;;;;;;;
2021/08/12 02:43:06;;;;;;;6.6;5.2;;;;;;;;;;;;;
2021/08/12 02:45:32;;;;;;;7.6;5.9;;;;;;;;;;;;;
2021/08/12 02:47:58;;;;;;;6.4;4.9;;;;;;;;;;;;;
2021/08/12 02:50:24;;;;;;;8.6;5.3;;;;;;;;;;;;;
2021/08/12 02:52:49;;;;;;;6.5;5.3;;;;;;;;;;;;;
2021/08/12 02:55:15;;;;;;;6.1;5.2;;;;;;;;;;;;;
2021/08/12 02:57:40;;;;;;;7;5.5;;;;;;;;;;;;;
2021/08/12 03:00:07;;;;;;;6.8;5.1;;;;;;;;;;;;;
2021/08/12 03:02:33;;;;;;;6;5.2;;;;;;;;;;;;;
2021/08/12 03:04:58;;;;;;;6.5;5.5;;;;;;;;;;;;;
2021/08/12 03:07:23;;;;;;;6.1;5.1;;;;;;;;;;;;;
2021/08/12 03:09:48;;;;;;;6.7;5.3;;;;;;;;;;;;;
2021/08/12 03:12:15;;;;;;;6.5;5.8;;;;;;;;;;;;;
2021/08/12 03:14:38;;;;;;;6.9;5.7;;;;;;;;;;;;;
2021/08/12 03:17:04;;;;;;;6.8;5.5;;;;;;;;;;;;;
2021/08/12 03:19:29;;;;;;;7.4;5.6;;;;;;;;;;;;;
2021/08/12 03:21:55;;;;;;;7;5.4;;;;;;;;;;;;;
2021/08/12 03:24:20;;;;;;;9.5;5.8;;;;;;;;;;;;;
2021/08/12 03:26:45;;;;;;;6.7;5.3;;;;;;;;;;;;;
2021/08/12 03:29:11;;;;;;;6.6;5.1;;;;;;;;;;;;;
2021/08/12 03:31:37;;;;;;;7.3;5.4;;;;;;;;;;;;;
2021/08/12 03:34:02;;;;;;;7.8;5.4;;;;;;;;;;;;;
2021/08/12 03:36:28;;;;;;;6.7;5.4;;;;;;;;;;;;;
2021/08/12 03:38:53;;;;;;;6.4;5.7;;;;;;;;;;;;;
2021/08/12 03:41:19;;;;;;;7.5;5.4;;;;;;;;;;;;;
2021/08/12 03:43:46;;;;;;;6.4;5.3;;;;;;;;;;;;;
2021/08/12 03:46:11;;;;;;;6.6;5.4;;;;;;;;;;;;;
2021/08/12 03:48:36;;;;;;;5.8;5.2;;;;;;;;;;;;;
2021/08/12 03:51:02;;;;;;;6.6;5.5;;;;;;;;;;;;;
2021/08/12 03:53:27;;;;;;;7.7;5.2;;;;;;;;;;;;;
2021/08/12 03:55:59;;;;;;;7.7;5.4;;;;;;;;;;;;;
2021/08/12 03:58:18;;;;;;;7;5.4;;;;;;;;;;;;;
2021/08/12 04:02:31;;;;;;;5.9;5.2;;;;;;;16.03;91.80664;942.6898;;;;
2021/08/12 04:04:56;;;;;;;6.2;5.4;;;;;;;15.93;92.34277;942.7509;;;;
2021/08/12 04:08:14;;;;;;;6.3;5.3;;;;;;;15.88;92.51563;942.7151;;;;
2021/08/12 04:10:42;;;;;;;8.4;5.5;;;;;;;15.98;91.85645;942.709;;;;
2021/08/12 04:13:07;;;;;;;6.8;5.2;;;;;;;15.85;92.70703;942.7064;;;;
2021/08/12 04:15:33;;;;;;;7.1;5.4;;;;;;;15.74;93.43262;942.7378;;;;
2021/08/12 04:17:58;;;;;;;7.2;5.5;;;;;;;15.68;94.21875;942.7234;;;;
2021/08/12 04:20:23;;;;;;;5.8;5.2;;;;;;;15.91;92.98633;942.7543;;;;
2021/08/12 04:22:51;;;;;;;7.6;5.3;;;;;;;16;92.04395;942.7122;;;;
2021/08/12 04:26:10;;;;;;;8.3;5.7;;;;;;;15.97;92.08594;942.7139;;;;
2021/08/12 04:28:41;;;;;;;6.9;5.5;;;;;;;16.06;91.35156;942.7026;;;;
2021/08/12 04:31:10;;;;;;;7.7;5.6;;;;;;;16;91.72168;942.7411;;;;
2021/08/12 04:33:35;;;;;;;6.5;5.3;;;;;;;15.9;92.23047;942.7198;;;;
2021/08/12 04:36:06;;;;;;;7;5.8;;;;;;;15.84;92.87793;942.7369;;;;
2021/08/12 04:38:35;;;;;;;7.4;6;;;;;;;15.92;92.58301;942.7358;;;;
2021/08/12 04:41:00;;;;;;;6.1;5.5;;;;;;;15.93;92.36523;942.7341;;;;
2021/08/12 04:43:25;;;;;;;8.7;5.8;;;;;;;16.09;91.66895;942.7281;;;;
2021/08/12 04:45:54;;;;;;;9.3;5.9;;;;;;;16.28;90.24023;942.7211;;;;
2021/08/12 04:48:20;;;;;;;7.4;5.1;;;;;;;16.34;89.91699;942.6965;;;;
2021/08/12 04:50:45;;;;;;;9.6;6.2;;;;;;;16.4;89.20117;942.7581;;;;
2021/08/12 04:53:10;;;;;;;6.7;5.5;;;;;;;16.4;89.1416;942.7389;;;;
2021/08/12 04:55:40;;;;;;;6.6;5.3;;;;;;;16.42;89.06543;942.7599;;;;
2021/08/12 04:58:06;;;;;;;7.2;5.3;;;;;;;16.38;89.27637;942.7575;;;;
2021/08/12 05:00:30;;;;;;;7;5.5;;;;;;;16.36;89.19336;942.7946;;;;
2021/08/12 05:02:56;;;;;;;7.6;6;;;;;;;16.47;88.60059;942.7492;;;;
2021/08/12 05:05:24;;;;;;;6.7;5.4;;;;;;;16.43;88.92871;942.7607;;;;
2021/08/12 05:07:50;;;;;;;8.3;5.9;;;;;;;16.21;89.67188;942.7469;;;;
2021/08/12 05:10:17;;;;;;;8.2;5.9;;;;;;;16.16;90.49316;942.7519;;;;
2021/08/12 05:12:42;;;;;;;7.4;5.6;;;;;;;16.3;90.16211;942.774;;;;
2021/08/12 05:15:10;;;;;;;8.3;5.4;;;;;;;16.33;90.22754;942.7513;;;;
2021/08/12 05:17:35;;;;;;;8.5;5.6;;;;;;;16.37;90.36426;942.7985;;;;
2021/08/12 05:20:00;;;;;;;6.1;5.5;;;;;;;16.38;90.16797;942.7744;;;;
2021/08/12 05:22:27;;;;;;;9.6;6.1;;;;;;;16.5;89.58984;942.8406;;;;
2021/08/12 05:24:52;;;;;;;6.3;5.2;;;;;;;16.56;89.00098;942.8756;;;;
2021/08/12 05:27:18;;;;;;;7.3;5.3;;;;;;;16.56;89.03711;942.8338;;;;
2021/08/12 05:29:44;;;;;;;7.2;5.5;;;;;;;16.71;88.69824;942.8809;;;;
2021/08/12 05:32:09;;;;;;;7.6;5.2;;;;;;;16.84;88.2002;942.8723;;;;
2021/08/12 05:34:36;;;;;;;11.1;5.3;;;;;;;17.53;86.70215;942.7924;;;;
2021/08/12 05:37:01;;;;;;;7;4.5;;;;;;;18.71;80.85156;942.7665;;;;
2021/08/12 05:39:27;;;;;;;5.4;4.6;;;;;;;19.77;75.7998;942.7222;;;;
2021/08/12 05:41:52;;;;;;;4.5;3.9;;;;;;;20.59;71.96777;942.77;;;;
2021/08/12 05:44:19;;;;;;;5.2;4.4;;;;;;;21.9;67.23633;942.7888;;;;
2021/08/12 05:46:45;;;;;;;5.9;4.3;;;;;;;22.85;63.36523;942.7698;;;;
2021/08/12 05:49:11;;;;;;;4.9;3.9;;;;;;;23.73;60.39453;942.7509;;;;
2021/08/12 05:51:37;;;;;;;5.4;4;;;;;;;24.1;59.19727;942.8475;;;;
2021/08/12 05:54:02;;;;;;;5.8;4;;;;;;;23.69;60.57715;942.8394;;;;
2021/08/12 05:56:27;;;;;;;8;5.5;;;;;;;23.96;59.47266;942.7921;;;;
2021/08/12 05:58:53;;;;;;;10.6;6.3;;;;;;;24.35;58.08789;942.7935;;;;
2021/08/12 06:01:18;;;;;;;10.5;6.3;;;;;;;23.97;58.79102;942.7575;;;;
2021/08/12 06:03:45;;;;;;;9.8;5.6;;;;;;;24.76;57.31445;942.7644;;;;
2021/08/12 06:06:10;;;;;;;9.8;5.3;;;;;;;25.87;54.32324;942.8057;;;;
2021/08/12 06:08:38;;;;;;;8.5;4.8;;;;;;;26.08;51.78223;942.7748;;;;
2021/08/12 06:11:05;;;;;;;8.1;5;;;;;;;26.08;52.2793;942.7903;;;;
2021/08/12 06:13:30;;;;;;;6.1;4.2;;;;;;;26.41;50.56543;942.7585;;;;
2021/08/12 06:16:06;;;;;;;4.3;3.5;;;;;;;25.94;51.45996;942.7364;;;;
2021/08/12 06:18:31;;;;;;;4.5;3.8;;;;;;;26.34;50.55762;942.8225;;;;
2021/08/12 06:20:59;;;;;;;3.9;3.5;;;;;;;28.25;46.0918;942.7603;;;;
2021/08/12 06:23:24;;;;;;;4.1;3.7;;;;;;;28;45.86426;942.7043;;;;
2021/08/12 06:25:49;;;;;;;3.9;3.5;;;;;;;29.02;44.49219;942.7217;;;;
2021/08/12 06:28:15;;;;;;;3.5;3.2;;;;;;;30.88;41.4707;942.6806;;;;
2021/08/12 06:30:40;;;;;;;4;3.6;;;;;;;31.75;39.39453;942.7258;;;;
2021/08/12 06:33:05;;;;;;;3.8;3.4;;;;;;;30.68;40.41309;942.7017;;;;
2021/08/12 06:35:34;;;;;;;3.4;3.1;;;;;;;31.16;39.29492;942.7037;;;;
2021/08/12 06:37:57;;;;;;;4.2;3.3;;;;;;;31.9;38.86914;942.673;;;;
2021/08/12 06:40:24;;;;;;;3.9;3.2;;;;;;;32.12;38.55176;942.6595;;;;
2021/08/12 06:42:48;;;;;;;3.7;3.1;;;;;;;32.77;37.16602;942.6606;;;;
2021/08/12 06:45:18;;;;;;;4.2;3.5;;;;;;;32.91;35.41211;942.6683;;;;
2021/08/12 06:47:42;;;;;;;3;2.7;;;;;;;32.26;36.87305;942.6647;;;;
2021/08/12 06:50:10;;;;;;;3.2;2.9;;;;;;;33.6;36.8252;942.6953;;;;
2021/08/12 06:52:37;;;;;;;3.4;3.1;;;;;;;33.41;35.19824;942.6785;;;;
2021/08/12 06:55:02;;;;;;;3.3;3;;;;;;;33.59;35.44141;942.7377;;;;
2021/08/12 06:57:27;;;;;;;3.2;2.9;;;;;;;35.01;33.25977;942.6541;;;;
2021/08/12 06:59:53;;;;;;;2.8;2.6;;;;;;;32.89;36.63574;942.6344;;;;
2021/08/12 07:02:18;;;;;;;3.5;3.2;;;;;;;33.67;36.98633;942.7065;;;;
2021/08/12 07:04:44;;;;;;;3.6;2.9;;;;;;;33.58;35.78906;942.6906;;;;
2021/08/12 07:07:19;;;;;;;3.6;3.1;;;;;;;35.14;33.87207;942.671;;;;
2021/08/12 07:09:47;;;;;;;3.3;3;;;;;;;34.64;34.37793;942.6708;;;;
2021/08/12 07:12:11;;;;;;;5.2;3.5;;;;;;;35.59;32.68555;942.6409;;;;
2021/08/12 07:14:36;;;;;;;3.3;2.9;;;;;;;34.93;32.65137;942.6843;;;;
2021/08/12 07:17:01;;;;;;;3.5;3.1;;;;;;;33.01;36.11719;942.6554;;;;
2021/08/12 07:19:30;;;;;;;3.8;3.4;;;;;;;32.6;36.89941;942.6596;;;;
2021/08/12 07:21:55;;;;;;;4.2;3;;;;;;;33.91;35.51465;942.6774;;;;
2021/08/12 07:24:24;;;;;;;3.8;3;;;;;;;34.64;33.98047;942.6344;;;;
2021/08/12 07:26:48;;;;;;;3.5;3.2;;;;;;;35.63;32.85742;942.6653;;;;
2021/08/12 07:29:15;;;;;;;3.1;2.8;;;;;;;35.14;31.08496;942.6097;;;;
2021/08/12 07:31:40;;;;;;;2.9;2.7;;;;;;;35.77;32.37207;942.6155;;;;
2021/08/12 07:34:05;;;;;;;3.4;2.7;;;;;;;37.19;30.02441;942.617;;;;
2021/08/12 07:36:30;;;;;;;4.3;3.3;;;;;;;37.06;28.87695;942.6089;;;;
2021/08/12 07:38:56;;;;;;;2.7;2.5;;;;;;;35.37;32.04199;942.5607;;;;
2021/08/12 07:41:21;;;;;;;3.1;2.8;;;;;;;35.92;30.18359;942.4996;;;;
2021/08/12 07:43:47;;;;;;;3.1;2.8;;;;;;;36.41;30.25195;942.5787;;;;
2021/08/12 07:46:12;;;;;;;3.3;3;;;;;;;37.82;28.90039;942.563;;;;
2021/08/12 07:48:40;;;;;;;2.8;2.6;;;;;;;38.05;28.41699;942.5333;;;;
2021/08/12 07:51:04;;;;;;;3;2.7;;;;;;;39.04;27.41895;942.5073;;;;
2021/08/12 07:53:30;;;;;;;4.4;2.9;;;;;;;37.47;27.75;942.4667;;;;
2021/08/12 07:55:56;;;;;;;3;2.8;;;;;;;36.9;29.06055;942.428;;;;
2021/08/12 07:58:21;;;;;;;3;2.8;;;;;;;36.21;30.02148;942.3948;;;;
2021/08/12 08:00:46;;;;;;;3;2.8;;;;;;;37.8;28.85059;942.4041;;;;
2021/08/12 08:03:12;;;;;;;3.2;2.9;;;;;;;35.77;32.63867;942.3691;;;;
2021/08/12 08:05:37;;;;;;;3.1;2.8;;;;;;;35.09;31.37109;942.374;;;;
2021/08/12 08:08:03;;;;;;;2.9;2.7;;;;;;;36.57;30.06836;942.342;;;;
2021/08/12 08:10:28;;;;;;;3.3;2.8;;;;;;;35.55;34.08398;942.3605;;;;
2021/08/12 08:12:55;;;;;;;3;2.8;;;;;;;34.96;34.17285;942.3392;;;;
2021/08/12 08:15:23;;;;;;;5.6;3.3;;;;;;;37.86;28.8418;942.4081;;;;
2021/08/12 08:17:49;;;;;;;3;2.8;;;;;;;38.81;27.2959;942.3375;;;;
2021/08/12 08:20:14;;;;;;;3.1;2.8;;;;;;;39.29;28.81055;942.368;;;;
2021/08/12 08:22:41;;;;;;;3;2.7;;;;;;;40.55;26.04395;942.3778;;;;
2021/08/12 08:25:12;;;;;;;4.8;3;;;;;;;39.32;26.94922;942.3378;;;;
2021/08/12 08:27:38;;;;;;;4.1;3;;;;;;;39.72;25.69238;942.2902;;;;
2021/08/12 08:30:03;;;;;;;2.7;2.5;;;;;;;38.91;26.32813;942.3236;;;;
2021/08/12 08:32:29;;;;;;;3.7;2.9;;;;;;;38.18;27.63574;942.3137;;;;
2021/08/12 08:34:54;;;;;;;3.7;2.6;;;;;;;37.05;30.33008;942.2681;;;;
2021/08/12 08:37:19;;;;;;;2.9;2.7;;;;;;;37.41;29.22559;942.2653;;;;
2021/08/12 08:39:44;;;;;;;3.3;3;;;;;;;37.86;28.62305;942.2906;;;;
2021/08/12 08:42:35;;;;;;;2.5;2.3;;;;;;;40.01;26.2207;942.2328;;;;
2021/08/12 08:45:01;;;;;;;2.9;2.7;;;;;;;39.88;26.83496;942.2325;;;;
2021/08/12 08:47:26;;;;;;;2.9;2.7;;;;;;;37.07;30.22266;942.1849;;;;
2021/08/12 08:49:53;;;;;;;2.7;2.5;;;;;;;37.7;28.94141;942.2812;;;;
2021/08/12 08:52:18;;;;;;;3.3;3;;;;;;;38.17;28.77637;942.2367;;;;
2021/08/12 08:54:45;;;;;;;2.9;2.7;;;;;;;36.89;31.05762;942.1211;;;;
2021/08/12 08:57:47;;;;;;;3.3;3;;;;;;;35.86;31.90723;942.1306;;;;
2021/08/12 09:00:12;;;;;;;3.6;3.3;;;;;;;37.7;29.30566;942.1838;;;;
2021/08/12 09:02:37;;;;;;;3.3;3;;;;;;;37.42;29.25098;942.1236;;;;
2021/08/12 09:05:07;;;;;;;3.3;3;;;;;;;36.42;31.8125;942.0776;;;;
2021/08/12 09:07:32;;;;;;;3.4;3.1;;;;;;;36.85;30.53516;942.0446;;;;
2021/08/12 09:10:01;;;;;;;4.7;3;;;;;;;36.59;31.83691;942.0619;;;;
2021/08/12 09:12:29;;;;;;;3.2;2.9;;;;;;;36.9;33.80957;942.0672;;;;
2021/08/12 09:14:52;;;;;;;3;2.8;;;;;;;35.16;34.79102;942.0718;;;;
2021/08/12 09:17:17;;;;;;;3;2.7;;;;;;;35.96;31.58789;942.0876;;;;
2021/08/12 09:19:42;;;;;;;3.4;3.1;;;;;;;36.34;31.89258;942.0605;;;;
2021/08/12 09:22:09;;;;;;;3.2;2.9;;;;;;;35.82;35.22852;942.0223;;;;
2021/08/12 09:24:34;;;;;;;3.2;2.9;;;;;;;34.64;35.37793;942.0237;;;;
2021/08/12 09:26:58;;;;;;;3.5;2.9;;;;;;;34.2;39.71582;942.0806;;;;
2021/08/12 09:29:25;;;;;;;3.4;3.1;;;;;;;34.53;38.2373;942.0267;;;;
2021/08/12 09:31:50;;;;;;;4.2;2.7;;;;;;;34.49;34.86035;942.0129;;;;
2021/08/12 09:34:22;;;;;;;2.7;2.5;;;;;;;35.68;33.80371;941.9807;;;;
2021/08/12 09:36:47;;;;;;;3.1;2.8;;;;;;;35.25;32.67383;942.0266;;;;
2021/08/12 09:39:13;;;;;;;2.7;2.5;;;;;;;33.18;40.07129;942.0053;;;;
2021/08/12 09:41:37;;;;;;;3;2.8;;;;;;;35.16;34.19922;942.0281;;;;
2021/08/12 09:44:06;;;;;;;3.1;2.8;;;;;;;33.62;37.78906;942.0389;;;;
2021/08/12 09:46:34;;;;;;;3.9;3.2;;;;;;;33.06;39.47168;941.9911;;;;
2021/08/12 09:48:57;;;;;;;3.3;3;;;;;;;34.38;35.22559;941.9856;;;;
2021/08/12 09:51:55;;;;;;;4.4;2.9;;;;;;;33.23;40.2207;941.9329;;;;
2021/08/12 09:54:21;;;;;;;3;2.7;;;;;;;32.94;40.2666;941.9409;;;;
2021/08/12 09:56:46;;;;;;;3.2;2.9;;;;;;;33.47;34.50586;941.8967;;;;
2021/08/12 09:59:12;;;;;;;3.4;2.9;;;;;;;33.53;37.54102;941.8943;;;;
2021/08/12 10:01:37;;;;;;;3.3;3;;;;;;;33.32;37.03027;941.8298;;;;
2021/08/12 10:04:02;;;;;;;3.1;2.8;;;;;;;33.22;40.33984;941.8264;;;;
2021/08/12 10:06:28;;;;;;;4.2;3.6;;;;;;;32.28;42.35449;941.7997;;;;
2021/08/12 10:08:53;;;;;;;3.4;3.1;;;;;;;32.8;38.78906;941.8251;;;;
2021/08/12 10:11:18;;;;;;;3.6;3.1;;;;;;;32.66;38.93359;941.8212;;;;
2021/08/12 10:13:43;;;;;;;3;2.8;;;;;;;33.04;40.2041;941.7969;;;;
2021/08/12 10:16:15;;;;;;;3.3;3;;;;;;;33.52;37.9375;941.7861;;;;
2021/08/12 10:18:40;;;;;;;3.6;3.1;;;;;;;32.93;39.17285;941.7795;;;;
2021/08/12 10:21:05;;;;;;;3.8;3.4;;;;;;;33.05;38.89551;941.7994;;;;
2021/08/12 10:23:31;;;;;;;2.9;2.6;;;;;;;32.57;40.74902;941.7594;;;;
2021/08/12 10:25:58;;;;;;;3.6;3.2;;;;;;;33.47;38.77441;941.7414;;;;
2021/08/12 10:28:26;;;;;;;3.2;2.9;;;;;;;33.1;38.19043;941.7086;;;;
2021/08/12 10:30:51;;;;;;;3.3;2.8;;;;;;;33.13;39.21387;941.7029;;;;
2021/08/12 10:33:18;;;;;;;4.1;3.2;;;;;;;32.36;42.72168;941.7228;;;;
2021/08/12 10:35:43;;;;;;;3.7;3.2;;;;;;;32.64;41.5;941.6649;;;;
2021/08/12 10:38:08;;;;;;;4.5;3.4;;;;;;;33.44;38.98828;941.7311;;;;
2021/08/12 10:40:35;;;;;;;3.5;3.2;;;;;;;33.21;38.8125;941.7413;;;;
2021/08/12 10:43:00;;;;;;;4.1;3.5;;;;;;;33.87;37.67676;941.6905;;;;
2021/08/12 10:45:28;;;;;;;3.6;3.3;;;;;;;33.4;41.00391;941.535;;;;
2021/08/12 10:47:54;;;;;;;4.2;3.1;;;;;;;34.2;38.37891;941.6702;;;;
2021/08/12 10:50:23;;;;;;;3.5;3.2;;;;;;;34.47;37.46191;941.5715;;;;
2021/08/12 10:52:48;;;;;;;3.4;3.1;;;;;;;34.18;38.1123;941.5599;;;;
2021/08/12 10:55:13;;;;;;;4.3;3.5;;;;;;;33.02;41.79883;941.5416;;;;
2021/08/12 10:57:40;;;;;;;4.1;3.3;;;;;;;32.93;42.71484;941.6149;;;;
2021/08/12 11:00:14;;;;;;;6.1;3.6;;;;;;;33.42;37.47168;941.5374;;;;
2021/08/12 11:02:42;;;;;;;3.8;3.4;;;;;;;34.53;38.59961;941.6054;;;;
2021/08/12 11:05:07;;;;;;;4;3.2;;;;;;;35.34;36.16895;941.5662;;;;
2021/08/12 11:07:32;;;;;;;4.9;3.5;;;;;;;36;34.81836;941.5131;;;;
2021/08/12 11:09:58;;;;;;;3.5;3.2;;;;;;;36.4;35.40527;941.5756;;;;
2021/08/12 11:12:24;;;;;;;3.4;3.1;;;;;;;36.54;33.74609;941.548;;;;
2021/08/12 11:14:50;;;;;;;3.9;3.5;;;;;;;37.08;33.54395;941.5385;;;;
2021/08/12 11:17:14;;;;;;;3.3;3;;;;;;;36.93;33.26563;941.5612;;;;
2021/08/12 11:19:41;;;;;;;3.6;3.3;;;;;;;37.41;32.52441;941.5556;;;;
2021/08/12 11:22:06;;;;;;;3.8;3.3;;;;;;;37.15;32.94336;941.5673;;;;
2021/08/12 11:24:31;;;;;;;4.6;3.2;;;;;;;36.9;33.8457;941.5003;;;;
2021/08/12 11:26:57;;;;;;;5.1;3.6;;;;;;;36.49;34.80762;941.5269;;;;
2021/08/12 11:29:22;;;;;;;3.9;3.5;;;;;;;36.92;33.37402;941.5255;;;;
2021/08/12 11:31:47;;;;;;;3.4;3.1;;;;;;;38.1;33.33887;941.5047;;;;
2021/08/12 11:34:14;;;;;;;3.5;3.1;;;;;;;37.57;34.1377;941.5145;;;;
2021/08/12 11:36:39;;;;;;;3.6;3.3;;;;;;;37.63;32.66211;941.4755;;;;
2021/08/12 11:39:03;;;;;;;4.2;3.3;;;;;;;37.42;33.16797;941.4677;;;;
2021/08/12 11:41:29;;;;;;;3.8;3.4;;;;;;;37.73;33.97949;941.4373;;;;
2021/08/12 11:43:54;;;;;;;4.1;3.7;;;;;;;37.81;32.99023;941.4419;;;;
2021/08/12 11:46:19;;;;;;;3.2;2.9;;;;;;;38.32;31.9209;941.4574;;;;
2021/08/12 11:48:44;;;;;;;3.8;3.1;;;;;;;37.29;33.51074;941.3403;;;;
2021/08/12 11:51:11;;;;;;;4.8;3.6;;;;;;;36.6;35.80859;941.3617;;;;
2021/08/12 11:53:36;;;;;;;3.5;3.2;;;;;;;36.64;34.21387;941.2842;;;;
2021/08/12 11:56:01;;;;;;;3.5;3.2;;;;;;;36.61;37.00781;941.2634;;;;
2021/08/12 12:00:52;;;;;;;4.1;3.7;;;;;;;36.41;35.96387;941.2572;;;;
2021/08/12 12:03:19;;;;;;;4.5;3.2;;;;;;;37.08;35.41016;941.2162;;;;
2021/08/12 12:05:44;;;;;;;3.3;3;;;;;;;37.58;33.98047;941.2198;;;;
2021/08/12 12:08:12;;;;;;;3.5;3.2;;;;;;;37.14;35.30566;941.2611;;;;
2021/08/12 12:10:37;;;;;;;3.7;3.3;;;;;;;37.39;34.40332;941.2684;;;;
2021/08/12 12:13:02;;;;;;;3.8;3.5;;;;;;;36.88;34.58203;941.2336;;;;
2021/08/12 12:15:32;;;;;;;3.8;3.4;;;;;;;37.19;34.14551;941.2181;;;;
2021/08/12 12:17:57;;;;;;;3.5;3.2;;;;;;;36.24;36.78516;941.2296;;;;
2021/08/12 12:20:24;;;;;;;3.6;3.3;;;;;;;35.17;38.47266;941.1772;;;;
2021/08/12 12:22:51;;;;;;;4;3.6;;;;;;;34.89;37.79785;941.2159;;;;
2021/08/12 12:25:16;;;;;;;3.9;3.1;;;;;;;34.94;38.69434;941.1885;;;;
2021/08/12 12:27:41;;;;;;;3.6;3.3;;;;;;;34.2;38.52344;941.1394;;;;
2021/08/12 12:30:06;;;;;;;3.8;3.4;;;;;;;34.28;39.1084;941.1387;;;;
2021/08/12 12:32:32;;;;;;;4;3.2;;;;;;;34.33;39.02832;941.1088;;;;
2021/08/12 12:34:59;;;;;;;3.5;3.2;;;;;;;34.14;39.9873;941.0797;;;;
2021/08/12 12:37:25;;;;;;;4.1;3.7;;;;;;;34.06;40.9668;941.0447;;;;
2021/08/12 12:39:50;;;;;;;3.8;3.5;;;;;;;34.11;39.52734;941.0639;;;;
2021/08/12 12:42:17;;;;;;;3.8;3.2;;;;;;;33.54;39.60938;941.0531;;;;
2021/08/12 12:44:42;;;;;;;4;3.6;;;;;;;32.8;41.8623;941.0483;;;;
2021/08/12 12:47:08;;;;;;;5.4;3.2;;;;;;;32.78;41.66895;941.1027;;;;
2021/08/12 12:49:33;;;;;;;4.2;3.4;;;;;;;33.01;41.8584;941.1078;;;;
2021/08/12 12:51:58;;;;;;;4.5;3.5;;;;;;;32.87;41.97754;941.1133;;;;
2021/08/12 12:54:23;;;;;;;4;3.3;;;;;;;33;41.34082;941.0809;;;;
2021/08/12 12:56:52;;;;;;;3.3;3;;;;;;;32.78;44.29785;941.1058;;;;
2021/08/12 12:59:17;;;;;;;4.5;3.6;;;;;;;32.91;42.10059;941.1487;;;;
2021/08/12 13:01:42;;;;;;;4;3.4;;;;;;;32.53;42.49805;941.1168;;;;
2021/08/12 13:04:07;;;;;;;3.9;3.5;;;;;;;32.55;41.44238;941.1196;;;;
2021/08/12 13:06:32;;;;;;;4.4;3.5;;;;;;;32.7;42.12988;941.0914;;;;
2021/08/12 13:08:58;;;;;;;5.4;3.7;;;;;;;32.3;43.33984;941.0979;;;;
2021/08/12 13:11:24;;;;;;;3.5;3.2;;;;;;;32.59;42.40723;941.12;;;;
2021/08/12 13:13:49;;;;;;;3.8;3.4;;;;;;;32.75;42.38574;941.0613;;;;
2021/08/12 13:16:18;;;;;;;3.9;3.3;;;;;;;32.73;41.00391;941.0535;;;;
2021/08/12 13:18:44;;;;;;;4;3.4;;;;;;;32.76;41.11426;941.0632;;;;
2021/08/12 13:21:09;;;;;;;3.4;3.1;;;;;;;32.73;42.37207;941.0631;;;;
2021/08/12 13:23:36;;;;;;;4;3.4;;;;;;;32.63;42.33887;941.0365;;;;
2021/08/12 13:26:01;;;;;;;3.9;3.2;;;;;;;32.78;40.80371;941.032;;;;
2021/08/12 13:28:26;;;;;;;3.3;3;;;;;;;32.93;41.75488;941.0466;;;;
2021/08/12 13:30:53;;;;;;;4.6;3.4;;;;;;;32.93;42.72754;941.0405;;;;
2021/08/12 13:33:18;;;;;;;3.4;3.1;;;;;;;32.71;41.24121;940.9573;;;;
2021/08/12 13:35:43;;;;;;;6.9;3.5;;;;;;;32.68;41.27637;941.0165;;;;
2021/08/12 13:38:08;;;;;;;4.1;3.6;;;;;;;32.77;42.13672;941.0076;;;;
2021/08/12 13:40:34;;;;;;;4.1;3.4;;;;;;;32.59;41.35156;940.954;;;;
2021/08/12 13:42:59;;;;;;;5.1;4;;;;;;;32.49;42.38672;940.894;;;;
2021/08/12 13:45:26;;;;;;;4.5;3.7;;;;;;;32.82;42.57324;940.9238;;;;
2021/08/12 13:49:04;;;;;;;4.3;3.4;;;;;;;32.48;41.80957;940.9338;;;;
2021/08/12 13:51:31;;;;;;;3.8;3.5;;;;;;;32.33;41.58008;940.9483;;;;
2021/08/12 13:53:56;;;;;;;4.5;3.6;;;;;;;32.32;42.02148;940.9576;;;;
2021/08/12 13:56:24;;;;;;;4.2;3.6;;;;;;;32.42;42.37988;940.9725;;;;
2021/08/12 13:58:49;;;;;;;4.1;3.4;;;;;;;32.15;43.38574;940.9689;;;;
2021/08/12 14:01:17;;;;;;;4.6;4;;;;;;;32.17;44.23926;940.949;;;;
2021/08/12 14:03:42;;;;;;;4.9;3.7;;;;;;;32.02;44.2959;940.948;;;;
2021/08/12 14:06:09;;;;;;;5.3;4;;;;;;;32.33;42.14258;940.9702;;;;
2021/08/12 14:08:34;;;;;;;4.8;3.7;;;;;;;32.39;43.52832;940.9988;;;;
2021/08/12 14:11:03;;;;;;;3.7;3.3;;;;;;;32.49;43.62207;940.9947;;;;
2021/08/12 14:13:29;;;;;;;5.7;4.3;;;;;;;32.41;44.30957;940.9719;;;;
2021/08/12 14:15:56;;;;;;;4.3;3.9;;;;;;;32.58;43.18652;940.9769;;;;
2021/08/12 14:18:27;;;;;;;3.7;3.3;;;;;;;32.24;42.06348;941.0228;;;;
2021/08/12 14:20:52;;;;;;;4.1;3.5;;;;;;;32.04;42.00781;941.0005;;;;
2021/08/12 14:23:17;;;;;;;4.5;3.9;;;;;;;32.02;42.6543;941.0353;;;;
2021/08/12 14:25:42;;;;;;;6.8;3.9;;;;;;;32.02;43.55273;941.0214;;;;
2021/08/12 14:28:09;;;;;;;5.1;3.8;;;;;;;32.19;43.66504;941.0544;;;;
2021/08/12 14:30:34;;;;;;;5.5;3.9;;;;;;;32.18;42.70605;941.0341;;;;
2021/08/12 14:33:14;;;;;;;4.7;3.5;;;;;;;32.05;42.44141;941.0289;;;;
2021/08/12 14:35:43;;;;;;;4.2;3.8;;;;;;;31.88;44.74902;940.9494;;;;
2021/08/12 14:38:08;;;;;;;4.4;3.8;;;;;;;31.62;45.22754;941.0349;;;;
2021/08/12 14:40:35;;;;;;;5.7;4.4;;;;;;;31.83;45.01953;941.0303;;;;
2021/08/12 14:42:59;;;;;;;3.9;3.4;;;;;;;31.84;43.97852;941.0619;;;;
2021/08/12 14:45:27;;;;;;;4.9;3.6;;;;;;;31.57;43.22266;941.0235;;;;
2021/08/12 14:47:52;;;;;;;4.1;3.7;;;;;;;31.43;44.13086;941.0211;;;;
2021/08/12 14:50:18;;;;;;;5.1;3.7;;;;;;;31.32;44.75391;941.0358;;;;
2021/08/12 14:52:43;;;;;;;5.7;4;;;;;;;31.3;44.40527;941.0266;;;;
2021/08/12 14:55:09;;;;;;;4.4;3.8;;;;;;;31.34;45.31934;941.0397;;;;
2021/08/12 14:57:34;;;;;;;4.2;3.8;;;;;;;31.35;44.7207;940.9897;;;;
2021/08/12 15:00:00;;;;;;;4.5;3.7;;;;;;;31.4;44.80957;940.9915;;;;
2021/08/12 15:02:25;;;;;;;5.1;3.9;;;;;;;31.3;44.1416;940.9894;;;;
2021/08/12 15:04:54;;;;;;;4.5;3.7;;;;;;;31.28;44.84668;940.9952;;;;
2021/08/12 15:07:20;;;;;;;5;4;;;;;;;31.01;43.30078;940.9783;;;;
2021/08/12 15:09:44;;;;;;;4.5;3.9;;;;;;;30.94;45.61328;940.9741;;;;
2021/08/12 15:12:11;;;;;;;5.2;4;;;;;;;30.86;45.64063;940.9906;;;;
2021/08/12 15:14:36;;;;;;;4.4;3.8;;;;;;;30.72;45.18457;940.9703;;;;
2021/08/12 15:17:00;;;;;;;4.1;3.6;;;;;;;30.73;46.46484;940.995;;;;
2021/08/12 15:19:28;;;;;;;4.8;3.9;;;;;;;30.73;46.42871;941.0245;;;;
2021/08/12 15:21:52;;;;;;;5.2;3.9;;;;;;;30.77;45.87012;941.0535;;;;
2021/08/12 15:24:20;;;;;;;4.7;3.7;;;;;;;30.7;45.23047;941.0308;;;;
2021/08/12 15:26:46;;;;;;;4.4;3.8;;;;;;;30.61;45.50781;941.0812;;;;
2021/08/12 15:29:13;;;;;;;6.5;4.2;;;;;;;30.76;46.74219;941.0637;;;;
2021/08/12 15:31:38;;;;;;;4.2;3.5;;;;;;;30.87;45.94043;941.0751;;;;
2021/08/12 15:34:04;;;;;;;5.1;3.7;;;;;;;30.99;45.85742;941.0563;;;;
2021/08/12 15:36:29;;;;;;;5.3;3.7;;;;;;;30.95;45.49609;941.0859;;;;
2021/08/12 15:38:56;;;;;;;4.5;3.8;;;;;;;30.64;45.51074;941.0676;;;;
2021/08/12 15:41:21;;;;;;;4.6;3.9;;;;;;;30.56;45.5752;941.0775;;;;